createdAt,value
2023-01-10T00:02:21.634Z,6.73
2023-01-10T00:07:23.633Z,6.68
2023-01-10T00:12:42.102Z,6.70
2023-01-10T00:17:42.719Z,6.71
2023-01-10T00:22:45.217Z,6.73
2023-01-10T00:27:49.614Z,6.70
2023-01-10T00:32:50.251Z,6.67
2023-01-10T00:37:57.690Z,6.69
2023-01-10T00:43:15.243Z,6.68
2023-01-10T00:48:17.213Z,6.63
2023-01-10T00:53:19.221Z,6.62
2023-01-10T00:58:19.919Z,6.64
2023-01-10T01:03:23.110Z,6.58
2023-01-10T01:08:25.111Z,6.63
2023-01-10T01:13:25.805Z,6.56
2023-01-10T01:18:26.538Z,6.53
2023-01-10T01:23:29.153Z,6.53
2023-01-10T01:28:29.785Z,6.51
2023-01-10T01:33:30.451Z,6.51
2023-01-10T01:38:32.443Z,6.43
2023-01-10T01:43:34.393Z,6.48
2023-01-10T01:48:39.078Z,6.48
2023-01-10T01:53:45.499Z,6.42
2023-01-10T01:58:50.083Z,6.49
2023-01-10T02:03:54.990Z,6.43
2023-01-10T02:09:04.686Z,6.41
2023-01-10T02:14:07.541Z,6.36
2023-01-10T02:19:18.972Z,6.33
2023-01-10T02:24:49.425Z,6.29
2023-01-10T02:30:25.770Z,6.31
2023-01-10T02:35:55.076Z,6.29
2023-01-10T02:41:02.754Z,6.21
2023-01-10T02:46:08.403Z,6.22
2023-01-10T02:51:18.897Z,6.23
2023-01-10T02:56:56.924Z,6.08
2023-01-10T03:02:03.260Z,5.91
2023-01-10T03:07:18.487Z,5.95
2023-01-10T03:12:25.899Z,5.90
2023-01-10T03:17:29.049Z,5.88
2023-01-10T03:22:32.823Z,5.82
2023-01-10T03:27:41.227Z,5.67
2023-01-10T03:32:42.932Z,5.69
2023-01-10T03:37:50.628Z,5.70
2023-01-10T03:43:15.539Z,5.75
2023-01-10T03:48:18.014Z,5.81
2023-01-10T03:53:20.322Z,5.90
2023-01-10T03:58:22.016Z,5.92
2023-01-10T04:03:22.738Z,5.95
2023-01-10T04:08:24.747Z,5.99
2023-01-10T04:13:25.400Z,5.99
2023-01-10T04:18:26.094Z,6.00
2023-01-10T04:23:29.957Z,6.12
2023-01-10T04:28:30.697Z,6.14
2023-01-10T04:33:32.379Z,6.16
2023-01-10T04:38:36.652Z,6.16
2023-01-10T04:43:37.289Z,6.15
2023-01-10T04:48:38.224Z,6.14
2023-01-10T04:53:40.437Z,6.18
2023-01-10T04:58:41.074Z,6.07
2023-01-10T05:03:41.892Z,6.01
2023-01-10T05:08:44.082Z,6.03
2023-01-10T05:13:46.572Z,6.08
2023-01-10T05:18:48.658Z,6.09
2023-01-10T05:23:50.699Z,6.17
2023-01-10T05:28:51.704Z,6.15
2023-01-10T05:33:52.993Z,6.14
2023-01-10T05:38:54.984Z,6.16
2023-01-10T05:43:55.676Z,6.14
2023-01-10T05:48:56.311Z,6.11
2023-01-10T05:53:58.655Z,6.04
2023-01-10T05:59:06.634Z,6.10
2023-01-10T06:04:10.404Z,6.04
2023-01-10T06:09:12.399Z,6.04
2023-01-10T06:14:13.051Z,6.02
2023-01-10T06:19:13.737Z,5.97
2023-01-10T06:24:15.727Z,6.03
2023-01-10T06:29:16.380Z,6.05
2023-01-10T06:34:17.104Z,6.06
2023-01-10T06:39:19.099Z,6.05
2023-01-10T06:44:19.757Z,6.05
2023-01-10T06:49:20.424Z,6.03
2023-01-10T06:54:22.524Z,6.03
2023-01-10T06:59:23.194Z,5.97
2023-01-10T07:04:23.834Z,5.94
2023-01-10T07:09:25.815Z,5.98
2023-01-10T07:14:26.498Z,6.04
2023-01-10T07:19:27.149Z,6.01
2023-01-10T07:24:29.168Z,6.01
2023-01-10T07:29:29.808Z,5.85
2023-01-10T07:34:30.473Z,5.85
2023-01-10T07:39:32.728Z,5.93
2023-01-10T07:44:33.406Z,6.00
2023-01-10T07:49:34.072Z,5.96
2023-01-10T07:54:36.242Z,5.74
2023-01-10T07:59:36.930Z,5.66
2023-01-10T08:04:38.234Z,5.66
2023-01-10T08:09:40.434Z,5.71
2023-01-10T08:14:41.137Z,5.77
2023-01-10T08:19:41.808Z,5.86
2023-01-10T08:24:43.809Z,5.95
2023-01-10T08:29:44.450Z,5.91
2023-01-10T08:34:45.136Z,6.01
2023-01-10T08:39:47.117Z,6.01
2023-01-10T08:44:47.842Z,5.99
2023-01-10T08:49:49.827Z,6.13
2023-01-10T08:54:52.455Z,6.16
2023-01-10T08:59:53.157Z,6.06
2023-01-10T09:04:53.814Z,6.08
2023-01-10T09:09:55.782Z,6.12
2023-01-10T09:14:56.528Z,6.22
2023-01-10T09:19:57.246Z,6.39
2023-01-10T09:24:59.625Z,6.57
2023-01-10T09:30:00.424Z,6.65
2023-01-10T09:35:01.123Z,6.60
2023-01-10T09:40:03.169Z,6.39
2023-01-10T09:45:15.064Z,6.09
2023-01-10T09:50:24.767Z,5.93
2023-01-10T09:55:32.220Z,5.84
2023-01-10T10:00:40.794Z,5.74
2023-01-10T10:05:41.949Z,5.77
2023-01-10T10:10:56.216Z,5.79
2023-01-10T10:16:05.455Z,5.85
2023-01-10T10:21:15.749Z,5.99
2023-01-10T10:26:26.019Z,6.07
2023-01-10T10:31:39.962Z,6.09
2023-01-10T10:36:44.853Z,6.14
2023-01-10T10:41:52.528Z,6.20
2023-01-10T10:46:53.622Z,6.35
2023-01-10T10:51:55.056Z,6.41
2023-01-10T10:56:58.427Z,6.46
2023-01-10T11:02:00.673Z,6.58
2023-01-10T11:07:01.970Z,6.71
2023-01-10T11:12:05.827Z,6.88
2023-01-10T11:17:20.117Z,6.85
2023-01-10T11:22:21.141Z,6.95
2023-01-10T11:27:26.876Z,6.91
2023-01-10T11:32:34.744Z,6.92
2023-01-10T11:37:37.257Z,6.98
2023-01-10T11:42:39.237Z,7.17
2023-01-10T11:47:45.255Z,7.20
2023-01-10T11:52:47.427Z,7.45
2023-01-10T11:57:57.588Z,7.41
2023-01-10T12:02:58.613Z,7.40
2023-01-10T12:08:06.148Z,7.41
2023-01-10T12:13:15.680Z,7.55
2023-01-10T12:18:18.196Z,7.52
2023-01-10T12:23:21.959Z,7.56
2023-01-10T12:28:28.715Z,7.57
2023-01-10T12:33:33.999Z,7.60
2023-01-10T12:38:57.715Z,7.64
2023-01-10T12:44:14.911Z,7.84
2023-01-10T12:49:21.975Z,7.69
2023-01-10T12:54:25.887Z,7.60
2023-01-10T12:59:37.933Z,7.65
2023-01-10T13:04:41.403Z,7.70
2023-01-10T13:09:43.431Z,7.62
2023-01-10T13:14:51.926Z,7.65
2023-01-10T13:20:19.843Z,7.69
2023-01-10T13:25:23.750Z,7.56
2023-01-10T13:30:30.465Z,7.47
2023-01-10T13:35:40.950Z,7.46
2023-01-10T13:40:41.655Z,7.48
2023-01-10T13:45:43.723Z,7.50
2023-01-10T13:50:51.122Z,7.49
2023-01-10T13:55:57.323Z,7.42
2023-01-10T14:01:20.380Z,7.49
2023-01-10T14:06:41.183Z,7.48
2023-01-10T14:11:53.669Z,7.48
2023-01-10T14:16:57.694Z,7.49
2023-01-10T14:22:03.881Z,7.48
2023-01-10T14:27:05.536Z,7.40
2023-01-10T14:32:20.961Z,7.31
2023-01-10T14:37:31.960Z,7.20
2023-01-10T14:42:32.993Z,7.27
2023-01-10T14:47:38.377Z,7.30
2023-01-10T14:52:43.180Z,7.25
2023-01-10T14:57:54.579Z,7.26
2023-01-10T15:02:58.934Z,7.17
2023-01-10T15:08:18.801Z,7.23
2023-01-10T15:13:23.218Z,7.19
2023-01-10T15:18:33.641Z,7.18
2023-01-10T15:23:36.616Z,6.99
2023-01-10T15:28:38.067Z,7.09
2023-01-10T15:33:46.319Z,6.96
2023-01-10T15:38:48.713Z,7.02
2023-01-10T15:43:52.033Z,6.92
2023-01-10T15:49:01.418Z,6.99
2023-01-10T15:54:04.709Z,6.94
2023-01-10T15:59:20.216Z,6.88
2023-01-10T16:04:22.364Z,6.82
2023-01-10T16:09:24.116Z,6.73
2023-01-10T16:14:24.813Z,6.80
2023-01-10T16:19:26.965Z,6.83
2023-01-10T16:24:29.533Z,6.81
2023-01-10T16:29:30.492Z,6.80
2023-01-10T16:34:34.288Z,6.82
2023-01-10T16:39:35.134Z,6.81
2023-01-10T16:44:36.280Z,6.84
2023-01-10T16:49:38.396Z,6.82
2023-01-10T16:54:39.113Z,6.74
2023-01-10T16:59:39.867Z,6.83
2023-01-10T17:04:41.916Z,6.77
2023-01-10T17:09:42.581Z,6.68
2023-01-10T17:14:43.259Z,6.57
2023-01-10T17:19:47.172Z,6.65
2023-01-10T17:24:47.918Z,6.85
2023-01-10T17:29:48.622Z,6.82
2023-01-10T17:34:50.642Z,6.67
2023-01-10T17:39:51.293Z,6.60
2023-01-10T17:44:52.087Z,6.60
2023-01-10T17:49:54.436Z,6.55
2023-01-10T17:54:55.169Z,6.33
2023-01-10T17:59:55.829Z,6.36
2023-01-10T18:04:57.805Z,6.38
2023-01-10T18:09:58.763Z,6.45
2023-01-10T18:14:59.789Z,6.49
2023-01-10T18:20:01.850Z,6.36
2023-01-10T18:25:02.616Z,6.23
2023-01-10T18:30:03.479Z,6.15
2023-01-10T18:35:06.246Z,6.16
2023-01-10T18:40:08.135Z,6.12
2023-01-10T18:45:09.955Z,5.95
2023-01-10T18:50:12.425Z,6.00
2023-01-10T18:55:13.212Z,5.92
2023-01-10T19:00:14.923Z,5.79
2023-01-10T19:05:17.156Z,5.70
2023-01-10T19:10:19.026Z,5.53
2023-01-10T19:15:19.768Z,5.45
2023-01-10T19:20:21.914Z,5.37
2023-01-10T19:25:22.864Z,5.24
2023-01-10T19:30:23.656Z,5.20
2023-01-10T19:35:25.799Z,5.08
2023-01-10T19:40:26.512Z,5.05
2023-01-10T19:45:28.389Z,4.97
2023-01-10T19:50:30.502Z,4.93
2023-01-10T19:55:32.566Z,4.81
2023-01-10T20:00:33.322Z,4.79
2023-01-10T20:05:37.087Z,4.61
2023-01-10T20:10:37.761Z,4.54
2023-01-10T20:15:38.516Z,4.41
2023-01-10T20:20:41.636Z,4.31
2023-01-10T20:25:42.374Z,4.23
2023-01-10T20:30:47.501Z,4.12
2023-01-10T20:35:57.626Z,3.98
2023-01-10T20:40:59.056Z,4.03
2023-01-10T20:46:05.587Z,3.92
2023-01-10T20:51:09.374Z,3.89
2023-01-10T20:56:14.252Z,3.85
2023-01-10T21:01:24.877Z,3.81
2023-01-10T21:06:31.123Z,3.77
2023-01-10T21:11:38.646Z,3.81
2023-01-10T21:16:45.597Z,3.72
2023-01-10T21:21:47.575Z,3.56
2023-01-10T21:26:48.452Z,3.52
2023-01-10T21:31:51.916Z,3.42
2023-01-10T21:36:56.897Z,3.37
2023-01-10T21:42:15.311Z,3.29
2023-01-10T21:47:15.998Z,3.24
2023-01-10T21:52:18.162Z,3.20
2023-01-10T21:57:22.174Z,3.14
2023-01-10T22:02:24.108Z,3.18
2023-01-10T22:07:28.340Z,3.16
2023-01-10T22:12:30.585Z,3.09
2023-01-10T22:17:33.918Z,3.15
2023-01-10T22:22:35.941Z,3.15
2023-01-10T22:27:36.609Z,3.01
2023-01-10T22:32:37.284Z,3.06
2023-01-10T22:37:39.266Z,3.03
2023-01-10T22:42:39.979Z,3.07
2023-01-10T22:47:40.649Z,3.06
2023-01-10T22:52:42.641Z,3.08
2023-01-10T22:57:47.224Z,3.07
2023-01-10T23:02:48.193Z,3.00
2023-01-10T23:07:51.190Z,2.95
2023-01-10T23:12:51.852Z,2.96
2023-01-10T23:17:52.570Z,2.97
2023-01-10T23:22:54.607Z,2.90
2023-01-10T23:27:55.269Z,2.87
2023-01-10T23:32:56.009Z,2.81
2023-01-10T23:38:05.263Z,2.81
2023-01-10T23:43:05.914Z,2.79
2023-01-10T23:48:07.311Z,2.81
2023-01-10T23:53:09.924Z,2.86
2023-01-10T23:58:10.690Z,2.87
